sensor_id;sensor_type;location;lat;lon;timestamp;P1;durP1;ratioP1;P2;durP2;ratioP2
15451;SDS011;7827;53.594;9.938;2022-08-02T00:01:00;10.80;;;3.38;;
15451;SDS011;7827;53.594;9.938;2022-08-02T00:03:28;7.32;;;3.00;;
15451;SDS011;7827;53.594;9.938;2022-08-02T00:05:58;5.78;;;3.05;;
15451;SDS011;7827;53.594;9.938;2022-08-02T00:08:27;8.93;;;3.10;;
15451;SDS011;7827;53.594;9.938;2022-08-02T00:10:55;7.18;;;2.80;;
15451;SDS011;7827;53.594;9.938;2022-08-02T00:13:24;10.40;;;3.60;;
15451;SDS011;7827;53.594;9.938;2022-08-02T00:15:52;8.48;;;3.03;;
15451;SDS011;7827;53.594;9.938;2022-08-02T00:18:22;8.07;;;3.10;;
15451;SDS011;7827;53.594;9.938;2022-08-02T00:20:50;6.07;;;2.90;;
15451;SDS011;7827;53.594;9.938;2022-08-02T00:23:19;8.00;;;3.83;;
15451;SDS011;7827;53.594;9.938;2022-08-02T00:25:47;9.07;;;3.10;;
15451;SDS011;7827;53.594;9.938;2022-08-02T00:28:21;7.80;;;3.40;;
15451;SDS011;7827;53.594;9.938;2022-08-02T00:30:55;7.65;;;3.38;;
15451;SDS011;7827;53.594;9.938;2022-08-02T00:33:26;9.35;;;3.83;;
15451;SDS011;7827;53.594;9.938;2022-08-02T00:36:14;10.70;;;3.53;;
15451;SDS011;7827;53.594;9.938;2022-08-02T00:38:43;9.30;;;3.33;;
15451;SDS011;7827;53.594;9.938;2022-08-02T00:41:12;6.13;;;3.10;;
15451;SDS011;7827;53.594;9.938;2022-08-02T00:43:43;6.13;;;2.95;;
15451;SDS011;7827;53.594;9.938;2022-08-02T00:46:14;8.50;;;3.40;;
15451;SDS011;7827;53.594;9.938;2022-08-02T00:48:46;11.18;;;3.90;;
15451;SDS011;7827;53.594;9.938;2022-08-02T00:51:15;7.55;;;3.15;;
15451;SDS011;7827;53.594;9.938;2022-08-02T00:53:44;8.80;;;3.20;;
15451;SDS011;7827;53.594;9.938;2022-08-02T00:56:13;5.57;;;3.45;;
15451;SDS011;7827;53.594;9.938;2022-08-02T00:58:41;9.65;;;3.22;;
15451;SDS011;7827;53.594;9.938;2022-08-02T01:01:10;8.18;;;3.22;;
15451;SDS011;7827;53.594;9.938;2022-08-02T01:03:38;11.25;;;3.80;;
15451;SDS011;7827;53.594;9.938;2022-08-02T01:06:08;10.57;;;4.22;;
15451;SDS011;7827;53.594;9.938;2022-08-02T01:08:37;6.80;;;3.08;;
15451;SDS011;7827;53.594;9.938;2022-08-02T01:11:09;6.32;;;3.15;;
15451;SDS011;7827;53.594;9.938;2022-08-02T01:13:38;8.13;;;3.75;;
15451;SDS011;7827;53.594;9.938;2022-08-02T01:16:08;7.70;;;4.10;;
15451;SDS011;7827;53.594;9.938;2022-08-02T01:18:44;8.02;;;3.47;;
15451;SDS011;7827;53.594;9.938;2022-08-02T01:21:31;8.48;;;3.22;;
15451;SDS011;7827;53.594;9.938;2022-08-02T01:24:15;6.38;;;3.67;;
15451;SDS011;7827;53.594;9.938;2022-08-02T01:26:59;6.07;;;3.20;;
15451;SDS011;7827;53.594;9.938;2022-08-02T01:29:50;8.00;;;3.53;;
15451;SDS011;7827;53.594;9.938;2022-08-02T01:32:26;7.20;;;3.65;;
15451;SDS011;7827;53.594;9.938;2022-08-02T01:35:06;10.20;;;3.38;;
15451;SDS011;7827;53.594;9.938;2022-08-02T01:37:40;11.85;;;3.80;;
15451;SDS011;7827;53.594;9.938;2022-08-02T01:40:17;6.45;;;3.20;;
15451;SDS011;7827;53.594;9.938;2022-08-02T01:43:01;14.07;;;3.53;;
15451;SDS011;7827;53.594;9.938;2022-08-02T01:45:39;9.00;;;3.10;;
15451;SDS011;7827;53.594;9.938;2022-08-02T01:48:11;15.75;;;3.90;;
15451;SDS011;7827;53.594;9.938;2022-08-02T01:50:42;9.18;;;3.50;;
15451;SDS011;7827;53.594;9.938;2022-08-02T01:53:15;6.15;;;3.25;;
15451;SDS011;7827;53.594;9.938;2022-08-02T01:55:49;12.68;;;3.95;;
15451;SDS011;7827;53.594;9.938;2022-08-02T01:58:25;5.93;;;3.70;;
15451;SDS011;7827;53.594;9.938;2022-08-02T02:00:58;6.63;;;3.33;;
15451;SDS011;7827;53.594;9.938;2022-08-02T02:03:28;10.95;;;3.50;;
15451;SDS011;7827;53.594;9.938;2022-08-02T02:06:07;7.75;;;3.25;;
15451;SDS011;7827;53.594;9.938;2022-08-02T02:08:39;8.07;;;3.67;;
15451;SDS011;7827;53.594;9.938;2022-08-02T02:11:12;8.35;;;3.50;;
15451;SDS011;7827;53.594;9.938;2022-08-02T02:14:01;8.05;;;3.95;;
15451;SDS011;7827;53.594;9.938;2022-08-02T02:16:32;7.22;;;4.10;;
15451;SDS011;7827;53.594;9.938;2022-08-02T02:19:02;8.30;;;3.45;;
15451;SDS011;7827;53.594;9.938;2022-08-02T02:21:33;6.88;;;3.55;;
15451;SDS011;7827;53.594;9.938;2022-08-02T02:24:02;9.82;;;3.40;;
15451;SDS011;7827;53.594;9.938;2022-08-02T02:26:37;7.75;;;3.63;;
15451;SDS011;7827;53.594;9.938;2022-08-02T02:29:18;7.35;;;3.45;;
15451;SDS011;7827;53.594;9.938;2022-08-02T02:31:55;7.97;;;3.55;;
15451;SDS011;7827;53.594;9.938;2022-08-02T02:34:27;6.78;;;3.30;;
15451;SDS011;7827;53.594;9.938;2022-08-02T02:37:03;9.27;;;3.55;;
15451;SDS011;7827;53.594;9.938;2022-08-02T02:39:38;5.57;;;3.70;;
15451;SDS011;7827;53.594;9.938;2022-08-02T02:42:11;8.07;;;3.55;;
15451;SDS011;7827;53.594;9.938;2022-08-02T02:44:44;8.35;;;3.38;;
15451;SDS011;7827;53.594;9.938;2022-08-02T02:47:16;9.65;;;4.18;;
15451;SDS011;7827;53.594;9.938;2022-08-02T02:50:06;5.45;;;3.30;;
15451;SDS011;7827;53.594;9.938;2022-08-02T02:52:38;5.90;;;3.47;;
15451;SDS011;7827;53.594;9.938;2022-08-02T02:55:08;6.20;;;3.47;;
15451;SDS011;7827;53.594;9.938;2022-08-02T02:57:38;7.20;;;3.97;;
15451;SDS011;7827;53.594;9.938;2022-08-02T03:00:08;10.75;;;3.67;;
15451;SDS011;7827;53.594;9.938;2022-08-02T03:02:44;7.35;;;3.45;;
15451;SDS011;7827;53.594;9.938;2022-08-02T03:05:14;6.10;;;3.88;;
15451;SDS011;7827;53.594;9.938;2022-08-02T03:07:44;7.45;;;3.53;;
15451;SDS011;7827;53.594;9.938;2022-08-02T03:10:12;7.07;;;3.10;;
15451;SDS011;7827;53.594;9.938;2022-08-02T03:12:40;7.72;;;3.50;;
15451;SDS011;7827;53.594;9.938;2022-08-02T03:15:09;6.85;;;3.45;;
15451;SDS011;7827;53.594;9.938;2022-08-02T03:17:41;14.65;;;3.95;;
15451;SDS011;7827;53.594;9.938;2022-08-02T03:20:13;7.53;;;3.30;;
15451;SDS011;7827;53.594;9.938;2022-08-02T03:22:44;7.75;;;3.65;;
15451;SDS011;7827;53.594;9.938;2022-08-02T03:25:14;7.30;;;3.33;;
15451;SDS011;7827;53.594;9.938;2022-08-02T03:27:44;12.68;;;3.67;;
15451;SDS011;7827;53.594;9.938;2022-08-02T03:30:14;9.88;;;3.85;;
15451;SDS011;7827;53.594;9.938;2022-08-02T03:32:44;10.30;;;3.50;;
15451;SDS011;7827;53.594;9.938;2022-08-02T03:35:15;7.22;;;3.50;;
15451;SDS011;7827;53.594;9.938;2022-08-02T03:37:50;11.43;;;3.95;;
15451;SDS011;7827;53.594;9.938;2022-08-02T03:40:22;8.45;;;3.38;;
15451;SDS011;7827;53.594;9.938;2022-08-02T03:42:54;7.45;;;3.78;;
15451;SDS011;7827;53.594;9.938;2022-08-02T03:45:23;11.32;;;3.97;;
15451;SDS011;7827;53.594;9.938;2022-08-02T03:47:55;6.45;;;3.72;;
15451;SDS011;7827;53.594;9.938;2022-08-02T03:50:26;8.27;;;3.78;;
15451;SDS011;7827;53.594;9.938;2022-08-02T03:52:55;7.13;;;3.72;;
15451;SDS011;7827;53.594;9.938;2022-08-02T03:55:24;7.35;;;3.83;;
15451;SDS011;7827;53.594;9.938;2022-08-02T03:57:52;12.52;;;4.88;;
15451;SDS011;7827;53.594;9.938;2022-08-02T04:00:21;10.80;;;4.13;;
15451;SDS011;7827;53.594;9.938;2022-08-02T04:02:50;8.80;;;4.07;;
15451;SDS011;7827;53.594;9.938;2022-08-02T04:05:20;9.30;;;4.18;;
15451;SDS011;7827;53.594;9.938;2022-08-02T04:07:48;6.93;;;4.00;;
15451;SDS011;7827;53.594;9.938;2022-08-02T04:10:37;9.73;;;4.68;;
15451;SDS011;7827;53.594;9.938;2022-08-02T04:13:25;15.77;;;5.20;;
15451;SDS011;7827;53.594;9.938;2022-08-02T04:16:03;11.15;;;4.95;;
15451;SDS011;7827;53.594;9.938;2022-08-02T04:18:39;9.95;;;5.03;;
15451;SDS011;7827;53.594;9.938;2022-08-02T04:21:14;11.85;;;5.10;;
15451;SDS011;7827;53.594;9.938;2022-08-02T04:23:47;9.15;;;4.75;;
15451;SDS011;7827;53.594;9.938;2022-08-02T04:26:17;11.90;;;5.03;;
15451;SDS011;7827;53.594;9.938;2022-08-02T04:28:53;11.65;;;5.20;;
15451;SDS011;7827;53.594;9.938;2022-08-02T04:31:24;11.93;;;4.95;;
15451;SDS011;7827;53.594;9.938;2022-08-02T04:33:53;12.60;;;5.22;;
15451;SDS011;7827;53.594;9.938;2022-08-02T04:36:23;10.23;;;4.75;;
15451;SDS011;7827;53.594;9.938;2022-08-02T04:38:57;13.27;;;5.95;;
15451;SDS011;7827;53.594;9.938;2022-08-02T04:41:35;8.90;;;5.07;;
15451;SDS011;7827;53.594;9.938;2022-08-02T04:44:09;8.02;;;5.38;;
15451;SDS011;7827;53.594;9.938;2022-08-02T04:46:39;12.98;;;5.30;;
15451;SDS011;7827;53.594;9.938;2022-08-02T04:49:10;17.75;;;5.82;;
15451;SDS011;7827;53.594;9.938;2022-08-02T04:51:41;10.13;;;5.05;;
15451;SDS011;7827;53.594;9.938;2022-08-02T04:54:10;13.18;;;6.00;;
15451;SDS011;7827;53.594;9.938;2022-08-02T04:56:39;22.73;;;8.43;;
15451;SDS011;7827;53.594;9.938;2022-08-02T04:59:08;21.10;;;6.50;;
15451;SDS011;7827;53.594;9.938;2022-08-02T05:01:37;12.95;;;5.63;;
15451;SDS011;7827;53.594;9.938;2022-08-02T05:04:07;14.48;;;6.18;;
15451;SDS011;7827;53.594;9.938;2022-08-02T05:06:36;13.73;;;6.85;;
15451;SDS011;7827;53.594;9.938;2022-08-02T05:09:06;13.63;;;5.82;;
15451;SDS011;7827;53.594;9.938;2022-08-02T05:11:35;12.68;;;4.60;;
15451;SDS011;7827;53.594;9.938;2022-08-02T05:14:04;9.68;;;4.57;;
15451;SDS011;7827;53.594;9.938;2022-08-02T05:16:32;12.43;;;4.70;;
15451;SDS011;7827;53.594;9.938;2022-08-02T05:19:01;9.52;;;4.15;;
15451;SDS011;7827;53.594;9.938;2022-08-02T05:21:30;11.55;;;4.85;;
15451;SDS011;7827;53.594;9.938;2022-08-02T05:23:58;8.15;;;4.18;;
15451;SDS011;7827;53.594;9.938;2022-08-02T05:26:28;9.55;;;4.25;;
15451;SDS011;7827;53.594;9.938;2022-08-02T05:28:56;13.10;;;3.95;;
15451;SDS011;7827;53.594;9.938;2022-08-02T05:31:25;10.23;;;4.30;;
15451;SDS011;7827;53.594;9.938;2022-08-02T05:33:53;8.15;;;3.63;;
15451;SDS011;7827;53.594;9.938;2022-08-02T05:36:21;11.93;;;4.55;;
15451;SDS011;7827;53.594;9.938;2022-08-02T05:38:50;6.57;;;3.75;;
15451;SDS011;7827;53.594;9.938;2022-08-02T05:41:31;9.68;;;3.75;;
15451;SDS011;7827;53.594;9.938;2022-08-02T05:44:00;10.63;;;4.00;;
15451;SDS011;7827;53.594;9.938;2022-08-02T05:46:28;10.90;;;4.10;;
15451;SDS011;7827;53.594;9.938;2022-08-02T05:48:57;9.23;;;4.40;;
15451;SDS011;7827;53.594;9.938;2022-08-02T05:51:27;13.27;;;4.35;;
15451;SDS011;7827;53.594;9.938;2022-08-02T05:54:06;13.20;;;4.60;;
15451;SDS011;7827;53.594;9.938;2022-08-02T05:56:48;10.23;;;4.18;;
15451;SDS011;7827;53.594;9.938;2022-08-02T05:59:30;12.68;;;3.80;;
15451;SDS011;7827;53.594;9.938;2022-08-02T06:02:09;8.55;;;4.13;;
15451;SDS011;7827;53.594;9.938;2022-08-02T06:04:58;11.27;;;4.03;;
15451;SDS011;7827;53.594;9.938;2022-08-02T06:07:37;10.60;;;3.92;;
15451;SDS011;7827;53.594;9.938;2022-08-02T06:10:10;11.82;;;3.55;;
15451;SDS011;7827;53.594;9.938;2022-08-02T06:12:43;9.18;;;3.63;;
15451;SDS011;7827;53.594;9.938;2022-08-02T06:15:16;11.02;;;3.63;;
15451;SDS011;7827;53.594;9.938;2022-08-02T06:17:46;9.57;;;3.05;;
15451;SDS011;7827;53.594;9.938;2022-08-02T06:20:16;13.23;;;4.10;;
15451;SDS011;7827;53.594;9.938;2022-08-02T06:22:46;10.15;;;3.70;;
15451;SDS011;7827;53.594;9.938;2022-08-02T06:25:15;15.43;;;3.38;;
15451;SDS011;7827;53.594;9.938;2022-08-02T06:28:09;12.95;;;4.00;;
15451;SDS011;7827;53.594;9.938;2022-08-02T06:30:39;11.32;;;3.97;;
15451;SDS011;7827;53.594;9.938;2022-08-02T06:33:10;10.60;;;3.78;;
15451;SDS011;7827;53.594;9.938;2022-08-02T06:35:42;13.40;;;3.97;;
15451;SDS011;7827;53.594;9.938;2022-08-02T06:38:20;10.57;;;3.55;;
15451;SDS011;7827;53.594;9.938;2022-08-02T06:40:54;7.57;;;3.03;;
15451;SDS011;7827;53.594;9.938;2022-08-02T06:43:33;8.88;;;2.85;;
15451;SDS011;7827;53.594;9.938;2022-08-02T06:46:11;9.75;;;3.05;;
15451;SDS011;7827;53.594;9.938;2022-08-02T06:48:59;11.32;;;3.45;;
15451;SDS011;7827;53.594;9.938;2022-08-02T06:51:29;16.15;;;3.53;;
15451;SDS011;7827;53.594;9.938;2022-08-02T06:53:57;11.65;;;3.22;;
15451;SDS011;7827;53.594;9.938;2022-08-02T06:56:25;9.88;;;2.72;;
15451;SDS011;7827;53.594;9.938;2022-08-02T06:58:55;7.22;;;2.80;;
15451;SDS011;7827;53.594;9.938;2022-08-02T07:01:26;11.75;;;3.47;;
15451;SDS011;7827;53.594;9.938;2022-08-02T07:04:04;8.77;;;2.92;;
15451;SDS011;7827;53.594;9.938;2022-08-02T07:06:32;8.90;;;2.85;;
15451;SDS011;7827;53.594;9.938;2022-08-02T07:09:01;12.07;;;2.60;;
15451;SDS011;7827;53.594;9.938;2022-08-02T07:11:46;9.85;;;2.65;;
15451;SDS011;7827;53.594;9.938;2022-08-02T07:14:16;12.95;;;2.90;;
15451;SDS011;7827;53.594;9.938;2022-08-02T07:16:44;6.80;;;2.28;;
15451;SDS011;7827;53.594;9.938;2022-08-02T07:19:13;13.02;;;2.65;;
15451;SDS011;7827;53.594;9.938;2022-08-02T07:21:41;8.95;;;2.58;;
15451;SDS011;7827;53.594;9.938;2022-08-02T07:24:24;10.45;;;2.72;;
15451;SDS011;7827;53.594;9.938;2022-08-02T07:26:53;4.97;;;2.70;;
15451;SDS011;7827;53.594;9.938;2022-08-02T07:29:38;10.43;;;2.92;;
15451;SDS011;7827;53.594;9.938;2022-08-02T07:32:12;13.85;;;2.72;;
15451;SDS011;7827;53.594;9.938;2022-08-02T07:34:41;7.47;;;2.47;;
15451;SDS011;7827;53.594;9.938;2022-08-02T07:37:19;13.80;;;3.67;;
15451;SDS011;7827;53.594;9.938;2022-08-02T07:40:09;10.27;;;2.65;;
15451;SDS011;7827;53.594;9.938;2022-08-02T07:42:45;8.88;;;2.65;;
15451;SDS011;7827;53.594;9.938;2022-08-02T07:45:18;8.82;;;2.65;;
15451;SDS011;7827;53.594;9.938;2022-08-02T07:47:48;7.70;;;2.80;;
15451;SDS011;7827;53.594;9.938;2022-08-02T07:50:17;10.43;;;2.83;;
15451;SDS011;7827;53.594;9.938;2022-08-02T07:52:47;7.47;;;2.85;;
15451;SDS011;7827;53.594;9.938;2022-08-02T07:55:23;9.48;;;2.72;;
15451;SDS011;7827;53.594;9.938;2022-08-02T07:58:06;11.15;;;2.97;;
15451;SDS011;7827;53.594;9.938;2022-08-02T08:00:40;11.30;;;2.63;;
15451;SDS011;7827;53.594;9.938;2022-08-02T08:03:09;8.85;;;2.65;;
15451;SDS011;7827;53.594;9.938;2022-08-02T08:05:37;8.07;;;2.47;;
15451;SDS011;7827;53.594;9.938;2022-08-02T08:08:06;9.45;;;2.70;;
15451;SDS011;7827;53.594;9.938;2022-08-02T08:10:42;8.98;;;2.30;;
15451;SDS011;7827;53.594;9.938;2022-08-02T08:13:11;10.57;;;2.70;;
15451;SDS011;7827;53.594;9.938;2022-08-02T08:15:41;9.13;;;2.40;;
15451;SDS011;7827;53.594;9.938;2022-08-02T08:18:18;7.53;;;2.70;;
15451;SDS011;7827;53.594;9.938;2022-08-02T08:20:47;9.05;;;2.65;;
15451;SDS011;7827;53.594;9.938;2022-08-02T08:23:15;7.03;;;2.55;;
15451;SDS011;7827;53.594;9.938;2022-08-02T08:25:43;7.82;;;2.50;;
15451;SDS011;7827;53.594;9.938;2022-08-02T08:28:12;4.93;;;2.75;;
15451;SDS011;7827;53.594;9.938;2022-08-02T08:30:41;11.32;;;3.13;;
15451;SDS011;7827;53.594;9.938;2022-08-02T08:33:10;5.43;;;2.53;;
15451;SDS011;7827;53.594;9.938;2022-08-02T08:35:38;7.53;;;2.60;;
15451;SDS011;7827;53.594;9.938;2022-08-02T08:38:06;8.63;;;2.95;;
15451;SDS011;7827;53.594;9.938;2022-08-02T08:40:35;6.55;;;2.45;;
15451;SDS011;7827;53.594;9.938;2022-08-02T08:43:04;7.13;;;2.80;;
15451;SDS011;7827;53.594;9.938;2022-08-02T08:45:32;7.07;;;2.42;;
15451;SDS011;7827;53.594;9.938;2022-08-02T08:48:05;10.70;;;2.85;;
15451;SDS011;7827;53.594;9.938;2022-08-02T08:50:56;7.97;;;2.83;;
15451;SDS011;7827;53.594;9.938;2022-08-02T08:53:38;14.70;;;3.22;;
15451;SDS011;7827;53.594;9.938;2022-08-02T08:56:14;7.80;;;2.55;;
15451;SDS011;7827;53.594;9.938;2022-08-02T08:58:43;12.02;;;3.20;;
15451;SDS011;7827;53.594;9.938;2022-08-02T09:01:13;12.23;;;3.33;;
15451;SDS011;7827;53.594;9.938;2022-08-02T09:03:44;8.07;;;2.80;;
15451;SDS011;7827;53.594;9.938;2022-08-02T09:06:12;7.78;;;2.83;;
15451;SDS011;7827;53.594;9.938;2022-08-02T09:08:42;9.50;;;3.95;;
15451;SDS011;7827;53.594;9.938;2022-08-02T09:11:12;9.40;;;3.28;;
15451;SDS011;7827;53.594;9.938;2022-08-02T09:13:49;8.65;;;3.08;;
15451;SDS011;7827;53.594;9.938;2022-08-02T09:16:27;7.57;;;3.03;;
15451;SDS011;7827;53.594;9.938;2022-08-02T09:19:16;8.20;;;2.65;;
15451;SDS011;7827;53.594;9.938;2022-08-02T09:22:11;5.10;;;2.50;;
15451;SDS011;7827;53.594;9.938;2022-08-02T09:24:43;7.95;;;2.95;;
15451;SDS011;7827;53.594;9.938;2022-08-02T09:27:14;8.32;;;2.72;;
15451;SDS011;7827;53.594;9.938;2022-08-02T09:29:44;6.03;;;2.58;;
15451;SDS011;7827;53.594;9.938;2022-08-02T09:32:42;6.78;;;2.28;;
15451;SDS011;7827;53.594;9.938;2022-08-02T09:35:13;5.00;;;2.17;;
15451;SDS011;7827;53.594;9.938;2022-08-02T09:38:18;6.32;;;2.10;;
15451;SDS011;7827;53.594;9.938;2022-08-02T09:40:46;6.95;;;2.03;;
15451;SDS011;7827;53.594;9.938;2022-08-02T09:43:14;10.43;;;2.65;;
15451;SDS011;7827;53.594;9.938;2022-08-02T09:45:43;7.55;;;2.50;;
15451;SDS011;7827;53.594;9.938;2022-08-02T09:48:11;4.40;;;2.30;;
15451;SDS011;7827;53.594;9.938;2022-08-02T09:50:41;7.20;;;2.70;;
15451;SDS011;7827;53.594;9.938;2022-08-02T09:53:12;6.55;;;2.83;;
15451;SDS011;7827;53.594;9.938;2022-08-02T09:55:43;4.88;;;2.10;;
15451;SDS011;7827;53.594;9.938;2022-08-02T09:58:22;12.35;;;2.92;;
15451;SDS011;7827;53.594;9.938;2022-08-02T10:00:54;10.23;;;2.30;;
15451;SDS011;7827;53.594;9.938;2022-08-02T10:03:24;5.13;;;2.20;;
15451;SDS011;7827;53.594;9.938;2022-08-02T10:06:03;5.47;;;2.30;;
15451;SDS011;7827;53.594;9.938;2022-08-02T10:08:32;6.00;;;2.10;;
15451;SDS011;7827;53.594;9.938;2022-08-02T10:11:00;4.47;;;2.35;;
15451;SDS011;7827;53.594;9.938;2022-08-02T10:13:30;5.93;;;2.05;;
15451;SDS011;7827;53.594;9.938;2022-08-02T10:16:00;5.22;;;2.20;;
15451;SDS011;7827;53.594;9.938;2022-08-02T10:18:31;11.25;;;2.40;;
15451;SDS011;7827;53.594;9.938;2022-08-02T10:21:09;7.13;;;1.95;;
15451;SDS011;7827;53.594;9.938;2022-08-02T10:23:42;5.95;;;2.10;;
15451;SDS011;7827;53.594;9.938;2022-08-02T10:26:13;7.07;;;2.30;;
15451;SDS011;7827;53.594;9.938;2022-08-02T10:28:48;6.15;;;2.63;;
15451;SDS011;7827;53.594;9.938;2022-08-02T10:31:18;5.88;;;2.10;;
15451;SDS011;7827;53.594;9.938;2022-08-02T10:33:53;4.75;;;2.40;;
15451;SDS011;7827;53.594;9.938;2022-08-02T10:36:27;4.35;;;1.80;;
15451;SDS011;7827;53.594;9.938;2022-08-02T10:38:59;5.13;;;2.28;;
15451;SDS011;7827;53.594;9.938;2022-08-02T10:41:38;9.00;;;2.42;;
15451;SDS011;7827;53.594;9.938;2022-08-02T10:44:08;5.40;;;2.47;;
15451;SDS011;7827;53.594;9.938;2022-08-02T10:46:50;6.35;;;2.17;;
15451;SDS011;7827;53.594;9.938;2022-08-02T10:49:20;8.77;;;2.58;;
15451;SDS011;7827;53.594;9.938;2022-08-02T10:52:12;6.40;;;2.47;;
15451;SDS011;7827;53.594;9.938;2022-08-02T10:54:41;5.57;;;2.25;;
15451;SDS011;7827;53.594;9.938;2022-08-02T10:57:19;3.58;;;1.85;;
15451;SDS011;7827;53.594;9.938;2022-08-02T10:59:50;6.60;;;2.10;;
15451;SDS011;7827;53.594;9.938;2022-08-02T11:02:31;5.70;;;2.08;;
15451;SDS011;7827;53.594;9.938;2022-08-02T11:05:04;4.88;;;1.88;;
15451;SDS011;7827;53.594;9.938;2022-08-02T11:07:38;3.13;;;1.70;;
15451;SDS011;7827;53.594;9.938;2022-08-02T11:10:31;6.60;;;2.17;;
15451;SDS011;7827;53.594;9.938;2022-08-02T11:13:06;4.85;;;1.83;;
15451;SDS011;7827;53.594;9.938;2022-08-02T11:21:34;3.95;;;1.75;;
15451;SDS011;7827;53.594;9.938;2022-08-02T11:26:56;9.00;;;2.10;;
15451;SDS011;7827;53.594;9.938;2022-08-02T11:29:36;5.75;;;2.15;;
15451;SDS011;7827;53.594;9.938;2022-08-02T11:32:06;4.03;;;2.00;;
15451;SDS011;7827;53.594;9.938;2022-08-02T11:34:42;4.78;;;2.05;;
15451;SDS011;7827;53.594;9.938;2022-08-02T11:37:25;5.78;;;2.05;;
15451;SDS011;7827;53.594;9.938;2022-08-02T11:39:56;6.15;;;1.90;;
15451;SDS011;7827;53.594;9.938;2022-08-02T11:42:29;4.90;;;2.00;;
15451;SDS011;7827;53.594;9.938;2022-08-02T11:44:59;6.88;;;2.30;;
15451;SDS011;7827;53.594;9.938;2022-08-02T11:47:27;5.05;;;2.25;;
15451;SDS011;7827;53.594;9.938;2022-08-02T11:50:03;4.82;;;2.00;;
15451;SDS011;7827;53.594;9.938;2022-08-02T11:52:33;5.60;;;2.05;;
15451;SDS011;7827;53.594;9.938;2022-08-02T11:55:05;7.07;;;2.38;;
15451;SDS011;7827;53.594;9.938;2022-08-02T11:57:35;5.45;;;2.10;;
15451;SDS011;7827;53.594;9.938;2022-08-02T12:00:24;3.90;;;1.98;;
15451;SDS011;7827;53.594;9.938;2022-08-02T12:02:56;5.45;;;2.20;;
15451;SDS011;7827;53.594;9.938;2022-08-02T12:05:25;4.40;;;2.20;;
15451;SDS011;7827;53.594;9.938;2022-08-02T12:08:13;6.43;;;2.30;;
15451;SDS011;7827;53.594;9.938;2022-08-02T12:10:49;6.53;;;2.20;;
15451;SDS011;7827;53.594;9.938;2022-08-02T12:13:18;5.30;;;2.25;;
15451;SDS011;7827;53.594;9.938;2022-08-02T12:15:47;5.57;;;2.38;;
15451;SDS011;7827;53.594;9.938;2022-08-02T12:18:17;3.58;;;1.83;;
15451;SDS011;7827;53.594;9.938;2022-08-02T12:21:19;6.80;;;2.47;;
15451;SDS011;7827;53.594;9.938;2022-08-02T12:23:49;3.17;;;1.92;;
15451;SDS011;7827;53.594;9.938;2022-08-02T12:26:28;4.07;;;2.20;;
15451;SDS011;7827;53.594;9.938;2022-08-02T12:28:57;6.93;;;2.50;;
15451;SDS011;7827;53.594;9.938;2022-08-02T12:31:38;5.25;;;1.85;;
15451;SDS011;7827;53.594;9.938;2022-08-02T12:34:23;4.43;;;2.42;;
15451;SDS011;7827;53.594;9.938;2022-08-02T12:37:00;4.97;;;2.17;;
15451;SDS011;7827;53.594;9.938;2022-08-02T12:39:37;5.30;;;2.10;;
15451;SDS011;7827;53.594;9.938;2022-08-02T12:42:10;10.50;;;2.28;;
15451;SDS011;7827;53.594;9.938;2022-08-02T12:44:48;4.70;;;2.08;;
15451;SDS011;7827;53.594;9.938;2022-08-02T12:47:19;4.32;;;2.30;;
15451;SDS011;7827;53.594;9.938;2022-08-02T12:52:37;5.93;;;2.50;;
15451;SDS011;7827;53.594;9.938;2022-08-02T12:55:13;4.82;;;2.30;;
15451;SDS011;7827;53.594;9.938;2022-08-02T12:57:56;4.82;;;1.90;;
15451;SDS011;7827;53.594;9.938;2022-08-02T13:00:28;3.42;;;1.90;;
15451;SDS011;7827;53.594;9.938;2022-08-02T13:02:58;6.28;;;2.13;;
15451;SDS011;7827;53.594;9.938;2022-08-02T13:05:27;6.85;;;2.10;;
15451;SDS011;7827;53.594;9.938;2022-08-02T13:08:17;3.10;;;1.75;;
15451;SDS011;7827;53.594;9.938;2022-08-02T13:10:45;3.38;;;2.15;;
15451;SDS011;7827;53.594;9.938;2022-08-02T13:13:15;5.00;;;1.90;;
15451;SDS011;7827;53.594;9.938;2022-08-02T13:15:43;4.25;;;1.85;;
15451;SDS011;7827;53.594;9.938;2022-08-02T13:18:16;5.38;;;1.80;;
15451;SDS011;7827;53.594;9.938;2022-08-02T13:20:44;7.57;;;2.25;;
15451;SDS011;7827;53.594;9.938;2022-08-02T13:23:12;2.80;;;2.00;;
15451;SDS011;7827;53.594;9.938;2022-08-02T13:25:47;5.25;;;1.95;;
15451;SDS011;7827;53.594;9.938;2022-08-02T13:28:19;3.70;;;1.70;;
15451;SDS011;7827;53.594;9.938;2022-08-02T13:30:48;3.80;;;1.92;;
15451;SDS011;7827;53.594;9.938;2022-08-02T13:33:17;5.13;;;1.83;;
15451;SDS011;7827;53.594;9.938;2022-08-02T13:35:46;3.70;;;2.00;;
15451;SDS011;7827;53.594;9.938;2022-08-02T13:38:15;4.28;;;1.75;;
15451;SDS011;7827;53.594;9.938;2022-08-02T13:40:50;4.57;;;1.80;;
15451;SDS011;7827;53.594;9.938;2022-08-02T13:43:38;3.63;;;2.08;;
15451;SDS011;7827;53.594;9.938;2022-08-02T13:46:21;4.10;;;2.20;;
15451;SDS011;7827;53.594;9.938;2022-08-02T13:48:55;4.55;;;2.28;;
15451;SDS011;7827;53.594;9.938;2022-08-02T13:51:23;6.30;;;2.10;;
15451;SDS011;7827;53.594;9.938;2022-08-02T13:53:52;3.90;;;2.10;;
15451;SDS011;7827;53.594;9.938;2022-08-02T13:56:20;4.68;;;2.00;;
15451;SDS011;7827;53.594;9.938;2022-08-02T13:59:02;3.88;;;2.28;;
15451;SDS011;7827;53.594;9.938;2022-08-02T14:01:51;3.17;;;2.10;;
15451;SDS011;7827;53.594;9.938;2022-08-02T14:04:22;4.75;;;1.80;;
15451;SDS011;7827;53.594;9.938;2022-08-02T14:06:51;6.93;;;2.20;;
15451;SDS011;7827;53.594;9.938;2022-08-02T14:09:24;4.35;;;2.28;;
15451;SDS011;7827;53.594;9.938;2022-08-02T14:11:53;5.28;;;2.00;;
15451;SDS011;7827;53.594;9.938;2022-08-02T14:14:23;6.05;;;2.20;;
15451;SDS011;7827;53.594;9.938;2022-08-02T14:16:51;5.15;;;1.90;;
15451;SDS011;7827;53.594;9.938;2022-08-02T14:19:19;5.35;;;2.05;;
15451;SDS011;7827;53.594;9.938;2022-08-02T14:21:49;3.38;;;2.20;;
15451;SDS011;7827;53.594;9.938;2022-08-02T14:24:21;3.75;;;2.10;;
15451;SDS011;7827;53.594;9.938;2022-08-02T14:26:49;3.95;;;2.20;;
15451;SDS011;7827;53.594;9.938;2022-08-02T14:29:17;4.72;;;1.98;;
15451;SDS011;7827;53.594;9.938;2022-08-02T14:31:47;5.55;;;2.17;;
15451;SDS011;7827;53.594;9.938;2022-08-02T14:34:15;3.85;;;2.00;;
15451;SDS011;7827;53.594;9.938;2022-08-02T14:36:44;3.22;;;2.10;;
15451;SDS011;7827;53.594;9.938;2022-08-02T14:39:18;4.07;;;2.05;;
15451;SDS011;7827;53.594;9.938;2022-08-02T14:41:48;2.28;;;2.05;;
15451;SDS011;7827;53.594;9.938;2022-08-02T14:44:26;5.22;;;2.67;;
15451;SDS011;7827;53.594;9.938;2022-08-02T14:46:56;6.10;;;2.03;;
15451;SDS011;7827;53.594;9.938;2022-08-02T14:49:25;5.00;;;2.40;;
15451;SDS011;7827;53.594;9.938;2022-08-02T14:51:53;3.65;;;2.40;;
15451;SDS011;7827;53.594;9.938;2022-08-02T14:54:23;4.05;;;2.35;;
15451;SDS011;7827;53.594;9.938;2022-08-02T14:56:56;3.60;;;2.50;;
15451;SDS011;7827;53.594;9.938;2022-08-02T14:59:27;3.45;;;2.13;;
15451;SDS011;7827;53.594;9.938;2022-08-02T15:01:58;3.55;;;2.30;;
15451;SDS011;7827;53.594;9.938;2022-08-02T15:04:27;3.95;;;2.38;;
15451;SDS011;7827;53.594;9.938;2022-08-02T15:07:08;3.28;;;2.13;;
15451;SDS011;7827;53.594;9.938;2022-08-02T15:09:36;7.28;;;2.42;;
15451;SDS011;7827;53.594;9.938;2022-08-02T15:12:05;4.07;;;2.40;;
15451;SDS011;7827;53.594;9.938;2022-08-02T15:14:35;3.67;;;2.47;;
15451;SDS011;7827;53.594;9.938;2022-08-02T15:17:06;3.17;;;2.42;;
15451;SDS011;7827;53.594;9.938;2022-08-02T15:19:35;6.53;;;2.70;;
15451;SDS011;7827;53.594;9.938;2022-08-02T15:22:25;3.72;;;2.65;;
15451;SDS011;7827;53.594;9.938;2022-08-02T15:24:54;4.65;;;2.25;;
15451;SDS011;7827;53.594;9.938;2022-08-02T15:27:22;4.63;;;2.47;;
15451;SDS011;7827;53.594;9.938;2022-08-02T15:29:51;2.90;;;2.60;;
15451;SDS011;7827;53.594;9.938;2022-08-02T15:32:26;4.18;;;2.50;;
15451;SDS011;7827;53.594;9.938;2022-08-02T15:34:55;3.35;;;2.40;;
15451;SDS011;7827;53.594;9.938;2022-08-02T15:37:24;9.50;;;2.72;;
15451;SDS011;7827;53.594;9.938;2022-08-02T15:39:56;5.88;;;2.75;;
15451;SDS011;7827;53.594;9.938;2022-08-02T15:42:25;4.28;;;2.72;;
15451;SDS011;7827;53.594;9.938;2022-08-02T15:44:56;4.78;;;2.70;;